createdAt,value
2023-03-27T00:00:13.439Z,97641.44
2023-03-27T00:05:16.945Z,97639.91
2023-03-27T00:10:19.547Z,97653.72
2023-03-27T00:15:22.274Z,97657.00
2023-03-27T00:20:26.455Z,97653.72
2023-03-27T00:25:29.960Z,97649.50
2023-03-27T00:30:33.921Z,97655.31
2023-03-27T00:35:37.104Z,97664.06
2023-03-27T00:40:40.198Z,97649.75
2023-03-27T00:45:43.675Z,97666.03
2023-03-27T00:50:48.570Z,97668.91
2023-03-27T00:55:55.027Z,97653.38
2023-03-27T01:00:58.339Z,97656.47
2023-03-27T01:06:02.503Z,97647.84
2023-03-27T01:11:43.087Z,97662.88
2023-03-27T01:16:51.675Z,97656.94
2023-03-27T01:22:13.876Z,97655.91
2023-03-27T01:27:38.034Z,97646.38
2023-03-27T01:32:43.811Z,97645.84
2023-03-27T01:37:58.806Z,97646.91
2023-03-27T01:43:11.626Z,97651.34
2023-03-27T01:48:39.796Z,97649.13
2023-03-27T01:54:06.515Z,97652.53
2023-03-27T01:59:19.008Z,97654.16
2023-03-27T02:04:27.422Z,97647.53
2023-03-27T02:09:35.810Z,97644.78
2023-03-27T02:15:24.168Z,97643.03
2023-03-27T02:20:28.941Z,97653.53
2023-03-27T02:25:42.101Z,97657.66
2023-03-27T02:31:33.165Z,97659.22
2023-03-27T02:36:55.821Z,97667.88
2023-03-27T02:42:25.845Z,97678.06
2023-03-27T02:47:42.713Z,97679.59
2023-03-27T02:52:53.865Z,97675.91
2023-03-27T02:58:03.305Z,97682.03
2023-03-27T03:03:53.897Z,97676.56
2023-03-27T03:09:19.140Z,97674.63
2023-03-27T03:14:28.187Z,97671.34
2023-03-27T03:19:31.450Z,97693.69
2023-03-27T03:24:35.697Z,97687.34
2023-03-27T03:29:40.007Z,97681.91
2023-03-27T03:34:57.108Z,97674.84
2023-03-27T03:40:01.536Z,97691.38
2023-03-27T03:45:09.312Z,97667.91
2023-03-27T03:50:13.570Z,97683.78
2023-03-27T03:55:16.630Z,97664.13
2023-03-27T04:00:19.815Z,97673.81
2023-03-27T04:05:27.305Z,97662.38
2023-03-27T04:10:35.838Z,97669.03
2023-03-27T04:15:41.832Z,97672.16
2023-03-27T04:20:54.525Z,97665.44
2023-03-27T04:26:02.115Z,97662.72
2023-03-27T04:31:40.123Z,97663.56
2023-03-27T04:37:08.436Z,97657.31
2023-03-27T04:42:16.656Z,97660.63
2023-03-27T04:47:20.558Z,97669.13
2023-03-27T04:52:26.408Z,97673.34
2023-03-27T04:57:31.083Z,97641.97
2023-03-27T05:02:36.299Z,97668.97
2023-03-27T05:07:48.109Z,97682.81
2023-03-27T05:12:57.863Z,97689.78
2023-03-27T05:18:02.184Z,97686.44
2023-03-27T05:23:06.696Z,97672.09
2023-03-27T05:28:09.471Z,97695.16
2023-03-27T05:33:14.348Z,97684.72
2023-03-27T05:38:17.629Z,97690.13
2023-03-27T05:43:46.670Z,97681.09
2023-03-27T05:48:51.033Z,97682.44
2023-03-27T05:53:54.058Z,97682.78
2023-03-27T05:59:01.320Z,97693.31
2023-03-27T06:04:05.650Z,97689.41
2023-03-27T06:09:26.707Z,97709.59
2023-03-27T06:14:58.488Z,97715.34
2023-03-27T06:20:13.058Z,97717.25
2023-03-27T06:25:20.459Z,97684.94
2023-03-27T06:30:25.069Z,97711.56
2023-03-27T06:35:53.262Z,97687.31
2023-03-27T06:41:04.986Z,97708.38
2023-03-27T06:46:42.561Z,97713.19
2023-03-27T06:52:17.845Z,97716.59
2023-03-27T06:57:21.744Z,97711.81
2023-03-27T07:02:28.334Z,97695.53
2023-03-27T07:08:18.994Z,97704.91
2023-03-27T07:13:28.150Z,97719.09
2023-03-27T07:18:33.294Z,97719.78
2023-03-27T07:23:36.047Z,97721.31
2023-03-27T07:28:45.193Z,97701.91
2023-03-27T07:33:48.791Z,97709.22
2023-03-27T07:38:52.399Z,97718.59
2023-03-27T07:44:04.173Z,97709.19
2023-03-27T07:49:18.859Z,97724.00
2023-03-27T07:54:21.892Z,97726.56
2023-03-27T07:59:28.258Z,97724.09
2023-03-27T08:04:34.064Z,97721.38
2023-03-27T08:09:40.725Z,97722.53
2023-03-27T08:14:47.169Z,97731.31
2023-03-27T08:19:56.115Z,97734.59
2023-03-27T08:25:00.504Z,97724.16
2023-03-27T08:30:05.304Z,97722.47
2023-03-27T08:35:15.712Z,97715.72
2023-03-27T08:40:28.549Z,97713.78
2023-03-27T08:45:55.853Z,97715.22
2023-03-27T08:51:07.103Z,97723.84
2023-03-27T08:56:17.356Z,97720.97
2023-03-27T09:01:38.543Z,97722.91
2023-03-27T09:06:58.704Z,97735.84
2023-03-27T09:12:39.506Z,97732.78
2023-03-27T09:18:18.747Z,97722.91
2023-03-27T09:23:31.141Z,97728.97
2023-03-27T09:28:56.236Z,97727.84
2023-03-27T09:34:07.103Z,97738.25
2023-03-27T09:39:17.412Z,97742.53
2023-03-27T09:44:30.205Z,97742.88
2023-03-27T09:49:38.630Z,97751.34
2023-03-27T09:54:54.958Z,97750.97
2023-03-27T10:00:15.793Z,97749.09
2023-03-27T10:05:27.333Z,97738.84
2023-03-27T10:10:35.024Z,97745.47
2023-03-27T10:15:41.261Z,97742.72
2023-03-27T10:20:53.886Z,97758.50
2023-03-27T10:26:03.874Z,97753.34
2023-03-27T10:31:49.839Z,97764.09
2023-03-27T10:37:49.790Z,97765.03
2023-03-27T10:43:13.093Z,97775.13
2023-03-27T10:48:27.979Z,97775.56
2023-03-27T10:53:41.947Z,97779.78
2023-03-27T10:58:52.181Z,97782.81
2023-03-27T11:04:00.086Z,97783.44
2023-03-27T11:09:24.594Z,97779.25
2023-03-27T11:15:02.795Z,97801.91
2023-03-27T11:20:19.741Z,97805.25
2023-03-27T11:25:49.697Z,97809.50
2023-03-27T11:31:12.026Z,97814.03
2023-03-27T11:36:41.719Z,97828.28
2023-03-27T11:42:05.366Z,97836.09
2023-03-27T11:47:28.479Z,97840.25
2023-03-27T11:52:42.870Z,97853.97
2023-03-27T11:58:14.891Z,97854.31
2023-03-27T12:03:33.743Z,97857.09
2023-03-27T12:08:55.687Z,97867.66
2023-03-27T12:14:18.497Z,97862.34
2023-03-27T12:20:00.733Z,97874.19
2023-03-27T12:25:51.440Z,97854.88
2023-03-27T12:31:28.566Z,97846.84
2023-03-27T12:36:36.525Z,97865.00
2023-03-27T12:41:44.155Z,97858.19
2023-03-27T12:47:24.349Z,97874.22
2023-03-27T12:52:38.607Z,97871.13
2023-03-27T12:57:50.993Z,97853.53
2023-03-27T13:03:19.710Z,97877.81
2023-03-27T13:08:52.086Z,97883.75
2023-03-27T13:14:35.464Z,97892.63
2023-03-27T13:20:09.843Z,97907.34
2023-03-27T13:25:42.347Z,97898.19
2023-03-27T13:30:47.374Z,97905.16
2023-03-27T13:36:19.996Z,97907.41
2023-03-27T13:41:48.220Z,97907.78
2023-03-27T13:47:16.243Z,97914.19
2023-03-27T13:52:56.793Z,97923.69
2023-03-27T13:58:34.624Z,97930.41
2023-03-27T14:04:04.832Z,97921.59
2023-03-27T14:09:15.696Z,97933.03
2023-03-27T14:15:02.048Z,97942.59
2023-03-27T14:20:15.247Z,97944.38
2023-03-27T14:25:35.094Z,97942.31
2023-03-27T14:30:56.485Z,97948.53
2023-03-27T14:36:26.206Z,97957.50
2023-03-27T14:41:31.435Z,97961.88
2023-03-27T14:46:37.526Z,97970.84
2023-03-27T14:51:48.254Z,97977.25
2023-03-27T14:57:14.338Z,97989.50
2023-03-27T15:02:34.918Z,97998.06
2023-03-27T15:07:43.196Z,98004.28
2023-03-27T15:12:52.970Z,97994.88
2023-03-27T15:17:59.822Z,98013.63
2023-03-27T15:23:13.279Z,98019.22
2023-03-27T15:28:23.857Z,98018.34
2023-03-27T15:34:04.902Z,98036.69
2023-03-27T15:39:08.522Z,98042.84
2023-03-27T15:44:17.647Z,98056.03
2023-03-27T15:49:28.226Z,98060.75
2023-03-27T15:54:34.359Z,98064.75
2023-03-27T15:59:36.903Z,98079.28
2023-03-27T16:04:57.795Z,98087.88
2023-03-27T16:10:05.320Z,98103.19
2023-03-27T16:15:28.576Z,98113.81
2023-03-27T16:20:35.181Z,98106.47
2023-03-27T16:25:38.970Z,98127.03
2023-03-27T16:30:42.441Z,98122.34
2023-03-27T16:35:46.067Z,98134.81
2023-03-27T16:40:49.698Z,98153.41
2023-03-27T16:45:52.576Z,98157.75
2023-03-27T16:50:55.398Z,98160.25
2023-03-27T16:55:59.761Z,98160.88
2023-03-27T17:01:02.795Z,98188.44
2023-03-27T17:06:11.532Z,98192.59
2023-03-27T17:11:14.326Z,98173.31
2023-03-27T17:16:17.333Z,98184.13
2023-03-27T17:21:20.324Z,98178.03
2023-03-27T17:26:28.844Z,98185.34
2023-03-27T17:31:32.471Z,98189.41
2023-03-27T17:36:44.927Z,98203.22
2023-03-27T17:41:50.963Z,98206.72
2023-03-27T17:46:53.582Z,98215.53
2023-03-27T17:51:56.430Z,98212.19
2023-03-27T17:56:59.102Z,98219.72
2023-03-27T18:02:03.315Z,98220.22
2023-03-27T18:07:06.510Z,98232.34
2023-03-27T18:12:10.162Z,98240.16
2023-03-27T18:17:15.888Z,98255.44
2023-03-27T18:22:18.469Z,98251.97
2023-03-27T18:27:21.158Z,98264.88
2023-03-27T18:32:23.842Z,98242.59
2023-03-27T18:37:27.478Z,98263.81
2023-03-27T18:42:30.049Z,98273.31
2023-03-27T18:47:33.186Z,98284.53
2023-03-27T18:52:36.069Z,98289.84
2023-03-27T18:57:38.711Z,98286.22
2023-03-27T19:02:41.507Z,98281.94
2023-03-27T19:07:44.278Z,98310.19
2023-03-27T19:12:49.795Z,98329.97
2023-03-27T19:18:11.103Z,98330.22
2023-03-27T19:23:32.349Z,98344.19
2023-03-27T19:28:35.198Z,98361.28
2023-03-27T19:33:38.715Z,98364.72
2023-03-27T19:38:42.054Z,98373.44
2023-03-27T19:43:44.676Z,98384.34
2023-03-27T19:48:49.202Z,98383.66
2023-03-27T19:54:00.559Z,98383.63
2023-03-27T19:59:04.460Z,98390.44
2023-03-27T20:04:07.082Z,98391.25
2023-03-27T20:09:10.487Z,98395.75
2023-03-27T20:14:13.541Z,98400.94
2023-03-27T20:19:17.101Z,98399.34
2023-03-27T20:24:19.721Z,98402.00
2023-03-27T20:29:29.688Z,98424.97
2023-03-27T20:34:32.611Z,98416.28
2023-03-27T20:39:38.854Z,98411.31
2023-03-27T20:44:45.758Z,98422.59
2023-03-27T20:49:48.367Z,98420.44
2023-03-27T20:54:51.617Z,98425.59
2023-03-27T20:59:55.845Z,98421.44
2023-03-27T21:04:58.448Z,98414.72
2023-03-27T21:10:01.198Z,98426.72
2023-03-27T21:15:05.698Z,98435.53
2023-03-27T21:20:10.380Z,98440.91
2023-03-27T21:25:13.188Z,98417.91
2023-03-27T21:30:16.668Z,98426.41
2023-03-27T21:35:19.332Z,98448.53
2023-03-27T21:40:21.931Z,98442.66
2023-03-27T21:45:24.588Z,98451.28
2023-03-27T21:50:27.317Z,98436.94
2023-03-27T21:55:29.876Z,98454.81
2023-03-27T22:00:32.525Z,98465.06
2023-03-27T22:05:39.114Z,98467.69
2023-03-27T22:10:41.749Z,98476.28
2023-03-27T22:15:44.353Z,98499.38
2023-03-27T22:20:47.030Z,98507.97
2023-03-27T22:25:55.650Z,98518.22
2023-03-27T22:30:58.320Z,98521.63
2023-03-27T22:36:01.351Z,98522.50
2023-03-27T22:41:06.373Z,98536.13
2023-03-27T22:46:20.376Z,98542.13
2023-03-27T22:51:23.849Z,98537.84
2023-03-27T22:56:26.737Z,98548.09
2023-03-27T23:01:29.378Z,98548.09
2023-03-27T23:06:32.044Z,98525.91
2023-03-27T23:11:34.692Z,98538.69
2023-03-27T23:16:37.405Z,98559.19
2023-03-27T23:21:40.234Z,98564.28
2023-03-27T23:26:42.815Z,98553.19
2023-03-27T23:31:45.486Z,98562.59
2023-03-27T23:36:48.065Z,98569.41
2023-03-27T23:41:50.722Z,98568.56
2023-03-27T23:46:53.301Z,98567.72
2023-03-27T23:51:56.073Z,98572.81
2023-03-27T23:56:58.689Z,98579.59
